Broken Arrow, OK (74012)

10:17 PM CST on February 11, 2016 (GMT -0600)
Country Aire | | Change Station
CLOSE
Current Station
Personal Weather Station
Location: Broken Arrow, OK
Elevation: 697 ft
Nearby Weather Stations

Elev 697 ft 36.05 °N, 95.82 °W | Updated 20 seconds ago

Partly Cloudy
Partly Cloudy
39.6 °F
Feels Like 40 °F
N
0.0
Wind Variable Wind from North
Gusts 0.0 mph

Today
High -- | Low -- °F
--% Chance of Precip.
Yesterday
High -- | Low -- °F
Precip. -- in
Pressure 30.20 in
Visibility 10.0 miles
Clouds Clear
Windchill 40 °F
Dew Point 28 °F
Humidity 63%
Rainfall in
Snow Depth Not available.
7:15 AM 6:00 PM
Waxing Crescent, 17% visible
METAR KRVS 120353Z 00000KT 10SM CLR 03/M02 A3017 RMK AO2 SLP225 T00331022
Pressure 30.20 in
Visibility 10.0 miles
Clouds Clear
Windchill 40 °F
Dew Point 28 °F
Humidity 63%
Rainfall in
Snow Depth Not available.
7:15 AM 6:00 PM
Waxing Crescent, 17% visible
METAR KRVS 120353Z 00000KT 10SM CLR 03/M02 A3017 RMK AO2 SLP225 T00331022

10-Day Weather Forecast

Almanac

Astronomy

Feb. 11, 2016 Rise Set
Actual Time
Civil Twilight
Nautical Twilight
Astronomical Twilight
Moon
Length of Visible Light
Length of Day
Tomorrow will be .
, % of the Moon is Illuminated

Today's Extremes

State Highs State Lows

Community

WunderPhotos

Upload Photos

1,892,265 photos uploaded!

WunderBlog® & News

Nearby

Air Quality

  Air Quality AQ Index Pollutant
Not available.

Snow Depth

Station Depth Elevation

Earthquake Activity

City Distance Mag. Time & Date
Minimum magnitude displayed is 2.5.

Coastal Water Temperatures

Place Temperature

Stations

Nearby Weather Stations

Station Location Temp. Windchill Dew Point Humidity Wind Precip. Elev Updated Type
                   

Watches & Warnings

There are currently no watches in effect.